• Join FlightAware (Why Join?)
  • Login
  • US Flag 
10:40PM EDT


 

Airport Tracker/Info


-or-


 

Live Flight TrackerFlight Track Log ✈ UAL582 ✈ 21-Apr-2013 ✈ CYYZ - KORD

Flight Track Log - Related Links

Times and Time Zones

All times are in EDT time to prevent confusion due to time zone crossing. See the UAL582 flight status page for this flight to view local times or setup timezone preferences in your user account.

Time Position Orientation Groundspeed Altitude Reporting Facility
EDT Latitude Longitude Course Direction KTS MPH feet Rate Location/Type
05:28PM 43.7000 -79.6167 270° West 130 150 1,900  Level Toronto Center
05:29PM 43.7500 -79.5667 36° Northeast 210 242 4,000 2,400 Climbing Toronto Center
05:30PM 43.8000 -79.5833 346° North 250 288 6,700 1,500 Climbing Toronto Center
05:31PM 43.7106 -80.0932 277° West  Level FlightAware Approximate
05:31PM 43.8000 -79.6833 270° West 270 311 7,000  Level Toronto Center
05:32PM 43.7167 -80.2135 270° West  Level FlightAware Approximate
05:32PM 43.8000 -79.8000 270° West 270 311 7,000  Level Toronto Center
05:33PM 43.7273 -80.3334 277° West  Level FlightAware Approximate
05:33PM 43.7833 -79.8833 255° West 270 311 9,700  Level Toronto Center
05:34PM 43.7334 -80.4538 270° West  Level FlightAware Approximate
05:34PM 43.7833 -80.0000 270° West 280 322 12,000  Level Toronto Center
05:35PM 43.7667 -80.1333 260° West 330 380 13,900 2,160 Climbing Toronto Center
05:36PM 43.7667 -80.2500 270° West 350 403 16,400 2,100 Climbing Toronto Center
05:37PM 43.7500 -80.4000 261° West 360 414 18,100 1,920 Climbing Toronto Center
05:38PM 43.7333 -80.5500 261° West 380 437 20,300 2,100 Climbing Toronto Center
05:39PM 43.7167 -80.7000 261° West 380 437 22,300 1,800 Climbing Toronto Center
05:40PM 43.6667 -80.8333 243° Southwest 390 449 24,000 1,620 Climbing Toronto Center
05:41PM 43.6333 -81.0000 255° West 390 449 25,600 1,380 Climbing Toronto Center
05:42PM 43.6000 -81.1333 251° West 400 460 26,800 1,200 Climbing Toronto Center
05:43PM 43.5667 -81.2667 251° West 410 472 28,100 1,380 Climbing Toronto Center
05:44PM 43.5333 -81.4333 255° West 410 472 29,600 1,380 Climbing Toronto Center
05:45PM 43.5167 -81.5667 260° West 410 472 30,900 1,260 Climbing Toronto Center
05:46PM 43.4833 -81.7167 253° West 410 472 32,200 1,260 Climbing Toronto Center
05:47PM 43.4500 -81.8667 253° West 400 460 33,500 1,080 Climbing Toronto Center
05:48PM 43.4000 -82.0167 245° Southwest 400 460 34,400 960 Climbing Toronto Center
05:49PM 43.3667 -82.1500 251° West 410 472 35,500 780 Climbing Toronto Center
05:50PM 43.3333 -82.3167 255° West 400 460 36,000 240 Climbing Toronto Center
05:51PM 43.3000 -82.4500 251° West 400 460 36,000  Level Toronto Center
05:52PM 43.2833 -82.6167 262° West 400 460 36,000  Level Toronto Center
05:53PM 43.2689 -82.6617 246° West 406 467 36,000  Level Cleveland Center
05:54PM 43.2286 -82.8028 249° West 401 461 36,000  Level Cleveland Center
05:55PM 43.1906 -82.9467 250° West 406 467 36,000  Level Cleveland Center
05:56PM 43.1497 -83.0931 249° West 406 467 36,000  Level Cleveland Center
05:57PM 43.1092 -83.2336 248° West 406 467 36,000  Level Cleveland Center
05:58PM 43.0725 -83.3742 250° West 406 467 36,000  Level Cleveland Center
05:59PM 43.0317 -83.5114 248° West 406 467 36,000  Level Cleveland Center
06:00PM 42.9947 -83.6489 250° West 400 460 36,000  Level Cleveland Center
06:01PM 42.9617 -83.7892 252° West 400 460 36,000  Level Cleveland Center
06:02PM 42.9469 -83.9389 262° West 395 455 36,000  Level Cleveland Center
06:03PM 42.9322 -84.0856 262° West 395 455 36,000  Level Cleveland Center
06:04PM 42.9172 -84.2322 262° West 395 455 36,000 -1,080 Level Cleveland Center
06:05PM 42.8833 -84.4833 260° West 400 460 33,300 -1,740 Descending Toronto Center
06:05PM 42.8894 -84.5289 280° West 392 451 32,700 -1,020 Descending Chicago Center
06:07PM 42.8744 -84.6756 262° West 391 450 32,000 -360 Descending Chicago Center
06:08PM 42.8594 -84.8242 262° West 396 456 32,000  Level Chicago Center
06:09PM 42.8439 -84.9717 262° West 395 455 32,000  Level Chicago Center
06:10PM 42.8267 -85.1203 261° West 395 455 32,000  Level Chicago Center
06:11PM 42.8111 -85.2711 262° West 401 461 32,000 -540 Level Chicago Center
06:12PM 42.7908 -85.4567 262° West 409 471 30,900 -1,020 Descending Chicago Center
06:13PM 42.7656 -85.6119 258° West 416 479 29,900 -1,200 Descending Chicago Center
06:14PM 42.7369 -85.7689 256° West 423 487 28,500 -1,800 Descending Chicago Center
06:15PM 42.7094 -85.9231 256° West 419 482 26,200 -2,520 Descending Chicago Center
06:16PM 42.6828 -86.0706 256° West 406 467 23,400 -2,520 Descending Chicago Center
06:17PM 42.6569 -86.2136 256° West 392 451 21,000 -2,160 Descending Chicago Center
06:18PM 42.6308 -86.3492 255° West 376 433 19,000 -1,500 Descending Chicago Center
06:19PM 42.6047 -86.4831 255° West 367 422 17,900 -1,500 Descending Chicago Center
06:20PM 42.5753 -86.6428 256° West 363 418 15,900 -1,740 Descending Chicago Center
06:21PM 42.5494 -86.7700 255° West 352 405 14,400 -1,500 Descending Chicago Center
06:22PM 42.5156 -86.8917 249° West 347 399 12,900 -1,500 Descending Chicago Center
06:23PM 42.4831 -87.0111 250° West 339 390 11,400 -1,440 Descending Chicago Center
06:24PM 42.4494 -87.1269 249° West 332 382 10,000 -900 Descending Chicago Center
06:25PM 42.4225 -87.2314 251° West 298 343 9,600 -900 Descending Chicago Center
06:26PM 42.3967 -87.3222 249° West 264 304 8,200 -1,260 Descending Chicago Center
06:27PM 42.3681 -87.4297 250° West 255 293 7,000 -600 Descending Chicago Center
06:28PM 42.3439 -87.5192 250° West 253 291 7,000  Level Chicago Center
06:29PM 42.2950 -87.5703 218° Southwest 256 295 7,000 -480 Level Chicago Center
06:30PM 42.2358 -87.6303 217° Southwest 221 254 6,100 -1,020 Descending Chicago Center
06:31PM 42.1931 -87.6819 222° Southwest 211 243 4,900 -660 Descending Chicago Center
06:32PM 42.1483 -87.7292 218° Southwest 206 237 4,800 -120 Descending Chicago Center